createdAt,value
2017-11-21T00:00:00.274Z,3.60
2017-11-21T00:02:27.729Z,3.28
2017-11-21T00:04:55.193Z,3.53
2017-11-21T00:07:28.131Z,4.33
2017-11-21T00:09:55.605Z,3.70
2017-11-21T00:12:23.051Z,3.80
2017-11-21T00:14:50.531Z,3.73
2017-11-21T00:17:17.966Z,4.20
2017-11-21T00:19:45.397Z,4.70
2017-11-21T00:22:12.914Z,4.90
2017-11-21T00:24:45.901Z,4.35
2017-11-21T00:27:13.333Z,4.57
2017-11-21T00:29:41.719Z,4.57
2017-11-21T00:32:09.174Z,5.20
2017-11-21T00:34:36.625Z,4.70
2017-11-21T00:37:04.086Z,5.97
2017-11-21T00:39:31.530Z,5.30
2017-11-21T00:41:58.997Z,5.47
2017-11-21T00:44:26.464Z,5.33
2017-11-21T00:46:53.919Z,6.03
2017-11-21T00:49:21.415Z,6.28
2017-11-21T00:51:49.770Z,5.65
2017-11-21T00:54:17.200Z,4.80
2017-11-21T00:56:44.663Z,4.17
2017-11-21T00:59:12.863Z,5.30
2017-11-21T01:01:40.317Z,4.50
2017-11-21T01:04:07.839Z,3.92
2017-11-21T01:06:35.294Z,4.13
2017-11-21T01:09:06.210Z,3.50
2017-11-21T01:11:33.670Z,4.32
2017-11-21T01:14:01.102Z,2.80
2017-11-21T01:16:28.558Z,4.35
2017-11-21T01:18:55.985Z,4.33
2017-11-21T01:21:23.426Z,3.93
2017-11-21T01:23:54.617Z,3.33
2017-11-21T01:26:23.013Z,3.65
2017-11-21T01:28:50.434Z,2.97
2017-11-21T01:31:19.117Z,3.23
2017-11-21T01:33:47.490Z,2.20
2017-11-21T01:36:14.944Z,2.78
2017-11-21T01:38:45.835Z,2.87
2017-11-21T02:40:19.582Z,3.87
2017-11-21T02:42:47.039Z,3.73
2017-11-21T02:45:14.473Z,3.03
2017-11-21T02:47:42.727Z,3.10
2017-11-21T02:50:10.450Z,3.20
2017-11-21T02:52:38.099Z,3.40
2017-11-21T02:55:12.921Z,2.80
2017-11-21T02:57:40.368Z,3.20
2017-11-21T03:00:08.141Z,3.30
2017-11-21T03:02:35.587Z,2.60
2017-11-21T03:05:03.046Z,2.57
2017-11-21T03:07:31.030Z,2.67
2017-11-21T03:09:58.474Z,3.10
2017-11-21T03:12:26.061Z,3.12
2017-11-21T03:14:54.288Z,3.22
2017-11-21T03:17:21.888Z,4.00
2017-11-21T03:19:49.342Z,2.63
2017-11-21T03:22:28.579Z,3.40
2017-11-21T03:25:07.822Z,3.17
2017-11-21T03:27:35.462Z,3.10
2017-11-21T03:30:03.237Z,3.70
2017-11-21T03:32:30.697Z,2.80
2017-11-21T03:34:58.153Z,2.60
2017-11-21T03:37:25.722Z,2.90
2017-11-21T03:39:54.561Z,2.85
2017-11-21T03:42:22.017Z,3.03
2017-11-21T03:44:49.738Z,3.50
2017-11-21T03:47:17.202Z,2.80
2017-11-21T03:49:45.406Z,3.85
2017-11-21T03:52:12.834Z,3.53
2017-11-21T03:54:40.302Z,3.80
2017-11-21T03:57:07.885Z,3.27
2017-11-21T03:59:36.110Z,3.95
2017-11-21T04:02:03.573Z,3.60
2017-11-21T04:04:31.765Z,3.10
2017-11-21T04:06:59.987Z,3.83
2017-11-21T04:09:27.450Z,3.77
2017-11-21T04:11:54.889Z,3.90
2017-11-21T04:14:22.362Z,3.90
2017-11-21T04:16:49.821Z,4.30
2017-11-21T04:19:17.269Z,3.92
2017-11-21T04:21:46.412Z,4.22
2017-11-21T04:24:15.529Z,4.10
2017-11-21T04:26:54.425Z,4.82
2017-11-21T04:29:23.082Z,4.42
2017-11-21T04:31:50.545Z,4.00
2017-11-21T04:34:17.984Z,5.70
2017-11-21T04:36:45.461Z,5.10
2017-11-21T04:39:12.898Z,5.40
2017-11-21T04:41:40.874Z,5.10
2017-11-21T04:44:08.333Z,4.70
2017-11-21T04:46:36.138Z,5.95
2017-11-21T04:49:03.594Z,5.53
2017-11-21T04:51:31.837Z,6.00
2017-11-21T04:53:59.282Z,4.97
2017-11-21T04:56:26.719Z,5.10
2017-11-21T04:58:59.091Z,5.78
2017-11-21T05:01:26.828Z,4.20
2017-11-21T05:03:55.986Z,5.50
2017-11-21T05:06:23.461Z,6.27
2017-11-21T05:08:50.897Z,5.80
2017-11-21T05:11:18.356Z,4.47
2017-11-21T05:13:47.369Z,4.83
2017-11-21T05:16:15.012Z,5.85
2017-11-21T05:18:42.448Z,6.35
2017-11-21T05:21:10.126Z,4.90
2017-11-21T05:23:37.570Z,6.80
2017-11-21T05:26:05.006Z,5.30
2017-11-21T05:28:32.466Z,6.87
2017-11-21T05:30:59.908Z,6.20
2017-11-21T05:33:40.787Z,5.87
2017-11-21T05:36:08.277Z,6.40
2017-11-21T05:38:35.721Z,6.40
2017-11-21T05:41:03.211Z,6.97
2017-11-21T05:43:30.667Z,6.73
2017-11-21T05:45:58.112Z,7.55
2017-11-21T05:48:25.575Z,7.40
2017-11-21T05:50:53.027Z,7.12
2017-11-21T05:53:20.601Z,6.53
2017-11-21T05:55:48.961Z,6.90
2017-11-21T05:58:19.802Z,6.67
2017-11-21T06:00:47.249Z,7.40
2017-11-21T06:03:14.734Z,6.47
2017-11-21T06:05:42.709Z,5.20
2017-11-21T06:08:10.146Z,8.23
2017-11-21T06:10:39.034Z,6.70
2017-11-21T06:13:06.578Z,6.62
2017-11-21T06:15:34.155Z,8.80
2017-11-21T06:18:01.779Z,7.37
2017-11-21T06:20:29.893Z,8.17
2017-11-21T06:22:58.129Z,7.37
2017-11-21T06:25:25.573Z,7.60
2017-11-21T06:27:53.043Z,8.63
2017-11-21T06:30:20.723Z,7.53
2017-11-21T06:32:48.191Z,8.48
2017-11-21T06:35:15.630Z,7.80
2017-11-21T06:37:43.213Z,8.10
2017-11-21T06:40:11.211Z,8.65
2017-11-21T06:42:38.676Z,8.10
2017-11-21T06:45:06.119Z,7.78
2017-11-21T06:47:33.551Z,7.82
2017-11-21T06:50:01.025Z,8.00
2017-11-21T06:52:28.474Z,8.40
2017-11-21T06:54:55.950Z,8.20
2017-11-21T06:57:23.393Z,8.80
2017-11-21T06:59:54.505Z,8.17
2017-11-21T07:02:21.963Z,7.70
2017-11-21T07:04:49.392Z,7.60
2017-11-21T07:07:16.881Z,9.30
2017-11-21T07:09:44.410Z,4.87
2017-11-21T07:12:12.106Z,6.67
2017-11-21T07:14:42.618Z,6.63
2017-11-21T07:17:10.058Z,5.43
2017-11-21T07:19:37.517Z,6.88
2017-11-21T07:22:04.977Z,6.35
2017-11-21T07:24:33.087Z,5.85
2017-11-21T07:27:00.909Z,7.25
2017-11-21T07:29:28.337Z,5.03
2017-11-21T07:31:55.805Z,6.83
2017-11-21T07:34:23.275Z,3.70
2017-11-21T07:36:50.748Z,4.00
2017-11-21T07:39:18.322Z,5.47
2017-11-21T07:41:45.878Z,5.20
2017-11-21T07:44:13.334Z,5.00
2017-11-21T07:46:41.846Z,4.43
2017-11-21T07:49:09.304Z,5.60
2017-11-21T07:51:36.778Z,4.43
2017-11-21T07:54:05.319Z,5.00
2017-11-21T07:56:32.747Z,5.07
2017-11-21T07:59:00.438Z,5.06
2017-11-21T08:01:28.302Z,5.07
2017-11-21T08:03:55.746Z,5.68
2017-11-21T08:06:23.173Z,5.30
2017-11-21T08:08:50.676Z,5.90
2017-11-21T08:11:18.108Z,8.27
2017-11-21T08:13:45.801Z,6.30
2017-11-21T08:16:17.578Z,5.32
2017-11-21T08:18:45.106Z,4.63
2017-11-21T08:21:12.566Z,5.47
2017-11-21T08:23:40.018Z,4.90
2017-11-21T08:26:07.473Z,5.47
2017-11-21T08:28:34.934Z,4.43
2017-11-21T08:31:05.779Z,3.70
2017-11-21T08:33:33.711Z,4.47
2017-11-21T08:36:01.211Z,3.92
2017-11-21T08:38:28.754Z,4.43
2017-11-21T08:40:56.206Z,3.53
2017-11-21T08:43:23.674Z,3.70
2017-11-21T08:45:51.182Z,3.65
2017-11-21T08:48:18.894Z,4.00
2017-11-21T08:50:46.350Z,4.13
2017-11-21T08:53:13.784Z,3.43
2017-11-21T08:55:42.158Z,3.47
2017-11-21T08:58:09.602Z,3.50
2017-11-21T09:00:37.057Z,3.93
2017-11-21T09:03:05.093Z,3.80
2017-11-21T09:05:32.632Z,3.33
2017-11-21T09:08:01.964Z,3.10
2017-11-21T09:10:29.410Z,3.08
2017-11-21T09:12:56.872Z,3.10
2017-11-21T09:15:24.322Z,3.30
2017-11-21T09:17:51.801Z,2.90
2017-11-21T09:20:19.343Z,2.58
2017-11-21T09:22:46.989Z,3.03
2017-11-21T09:25:15.076Z,2.70
2017-11-21T09:27:42.545Z,2.93
2017-11-21T09:30:10.758Z,2.87
2017-11-21T09:32:41.530Z,3.60
2017-11-21T09:35:09.810Z,3.58
2017-11-21T09:37:37.266Z,3.70
2017-11-21T09:40:05.644Z,3.53
2017-11-21T09:42:33.086Z,3.30
2017-11-21T09:45:00.537Z,2.80
2017-11-21T09:47:29.618Z,2.40
2017-11-21T09:49:57.172Z,2.90
2017-11-21T09:52:24.749Z,3.40
2017-11-21T09:54:52.219Z,2.60
2017-11-21T09:57:19.770Z,2.50
2017-11-21T09:59:47.762Z,2.67
2017-11-21T10:02:18.306Z,1.87
2017-11-21T10:04:45.759Z,1.87
2017-11-21T10:07:13.221Z,2.10
2017-11-21T10:09:40.695Z,2.45
2017-11-21T10:12:08.126Z,3.00
2017-11-21T10:14:36.093Z,2.55
2017-11-21T10:17:03.535Z,3.25
2017-11-21T10:19:34.471Z,2.30
2017-11-21T10:22:02.870Z,2.37
2017-11-21T10:24:30.372Z,2.80
2017-11-21T10:26:57.817Z,3.25
2017-11-21T10:29:25.233Z,1.90
2017-11-21T10:31:52.977Z,2.42
2017-11-21T10:34:21.939Z,2.15
2017-11-21T10:36:49.364Z,1.97
2017-11-21T10:39:16.891Z,2.40
2017-11-21T10:41:44.950Z,2.33
2017-11-21T10:44:14.454Z,1.90
2017-11-21T10:46:41.953Z,1.70
2017-11-21T10:49:09.482Z,1.83
2017-11-21T10:51:36.943Z,3.00
2017-11-21T10:54:04.951Z,2.60
2017-11-21T10:56:32.636Z,1.90
2017-11-21T10:59:00.478Z,2.13
2017-11-21T11:01:27.958Z,1.83
2017-11-21T11:03:55.569Z,1.77
2017-11-21T11:06:23.001Z,1.40
2017-11-21T11:08:50.479Z,1.90
2017-11-21T11:11:18.641Z,1.43
2017-11-21T11:13:46.496Z,2.23
2017-11-21T11:16:13.929Z,2.57
2017-11-21T11:18:44.202Z,1.70
2017-11-21T11:21:11.668Z,1.80
2017-11-21T11:23:39.125Z,1.43
2017-11-21T11:26:08.253Z,1.90
2017-11-21T11:28:35.685Z,1.63
2017-11-21T11:31:03.924Z,2.33
2017-11-21T11:33:38.489Z,1.30
2017-11-21T11:36:06.077Z,3.00
2017-11-21T11:38:33.595Z,2.00
2017-11-21T11:41:01.035Z,1.40
2017-11-21T11:43:28.479Z,1.20
2017-11-21T11:45:55.953Z,1.30
2017-11-21T11:48:23.483Z,1.60
2017-11-21T11:50:51.678Z,1.15
2017-11-21T11:53:19.147Z,1.77
2017-11-21T11:55:48.020Z,2.40
2017-11-21T11:58:15.474Z,1.50
2017-11-21T12:00:42.934Z,1.90
2017-11-21T12:03:10.382Z,2.07
2017-11-21T12:05:41.534Z,2.37
2017-11-21T12:08:08.970Z,1.70
2017-11-21T12:10:37.066Z,2.10
2017-11-21T12:13:05.034Z,1.93
2017-11-21T12:15:32.474Z,1.47
2017-11-21T12:17:59.929Z,2.50
2017-11-21T12:20:27.373Z,1.50
2017-11-21T12:22:55.850Z,1.48
2017-11-21T12:25:23.300Z,1.30
2017-11-21T12:27:51.097Z,1.50
2017-11-21T12:30:18.551Z,1.90
2017-11-21T12:32:45.987Z,3.23
2017-11-21T12:35:16.538Z,1.30
2017-11-21T12:37:43.992Z,1.67
2017-11-21T12:40:11.449Z,1.80
2017-11-21T12:42:40.418Z,1.55
2017-11-21T12:45:08.632Z,1.50
2017-11-21T12:47:36.294Z,1.43
2017-11-21T12:50:04.366Z,1.77
2017-11-21T12:52:31.822Z,2.17
2017-11-21T12:54:59.307Z,1.77
2017-11-21T12:57:26.737Z,1.70
2017-11-21T12:59:54.174Z,1.50
2017-11-21T13:02:21.638Z,1.83
2017-11-21T13:04:49.086Z,2.00
2017-11-21T13:07:20.241Z,1.50
2017-11-21T13:09:48.125Z,1.40
2017-11-21T13:12:15.562Z,1.50
2017-11-21T13:14:43.042Z,1.80
2017-11-21T13:17:10.474Z,1.53
2017-11-21T13:19:37.920Z,1.20
2017-11-21T13:22:08.360Z,2.08
2017-11-21T13:24:35.822Z,2.03
2017-11-21T13:27:03.268Z,2.43
2017-11-21T13:29:30.740Z,2.00
2017-11-21T13:31:58.178Z,2.80
2017-11-21T13:34:27.325Z,2.75
2017-11-21T13:36:54.815Z,2.57
2017-11-21T13:39:22.406Z,2.60
2017-11-21T13:41:49.858Z,3.10
2017-11-21T13:44:17.298Z,2.40
2017-11-21T13:46:44.746Z,2.80
2017-11-21T13:49:12.249Z,2.45
2017-11-21T13:51:41.505Z,3.10
2017-11-21T13:54:09.014Z,2.20
2017-11-21T13:56:36.445Z,2.30
2017-11-21T13:59:05.405Z,2.72
2017-11-21T14:01:32.842Z,1.87
2017-11-21T14:04:00.353Z,1.85
2017-11-21T14:06:31.810Z,1.80
2017-11-21T14:08:59.778Z,2.00
2017-11-21T14:11:28.258Z,2.10
2017-11-21T14:13:55.889Z,1.47
2017-11-21T14:16:23.342Z,2.47
2017-11-21T14:18:50.927Z,2.58
2017-11-21T14:21:23.662Z,1.70
2017-11-21T14:23:51.138Z,2.70
2017-11-21T14:26:18.593Z,2.35
2017-11-21T14:28:46.066Z,2.07
2017-11-21T14:31:14.372Z,2.55
2017-11-21T14:33:41.841Z,1.75
2017-11-21T14:36:09.610Z,2.20
2017-11-21T14:38:37.157Z,2.00
2017-11-21T14:41:04.791Z,2.20
2017-11-21T14:43:34.306Z,2.35
2017-11-21T14:46:01.801Z,2.43
2017-11-21T14:48:29.346Z,1.90
2017-11-21T14:50:56.785Z,2.67
2017-11-21T14:53:24.260Z,3.33
2017-11-21T14:55:52.363Z,2.08
2017-11-21T14:58:19.841Z,3.05
2017-11-21T15:00:47.318Z,2.65
2017-11-21T15:03:14.763Z,3.07
2017-11-21T15:05:42.229Z,3.10
2017-11-21T15:08:09.704Z,2.90
2017-11-21T15:10:37.937Z,2.60
2017-11-21T15:13:06.026Z,3.25
2017-11-21T15:15:33.485Z,3.13
2017-11-21T15:18:01.566Z,3.23
2017-11-21T15:20:29.033Z,4.12
2017-11-21T15:22:56.465Z,3.73
2017-11-21T15:25:24.834Z,3.70
2017-11-21T15:27:52.302Z,3.17
2017-11-21T15:30:19.786Z,3.40
2017-11-21T15:32:47.213Z,3.50
2017-11-21T15:35:17.651Z,3.20
2017-11-21T15:37:48.318Z,3.87
2017-11-21T15:40:15.773Z,4.00
2017-11-21T15:42:43.562Z,3.87
2017-11-21T15:45:11.274Z,3.50
2017-11-21T15:47:39.967Z,4.48
2017-11-21T15:50:07.409Z,5.30
2017-11-21T15:52:34.850Z,3.97
2017-11-21T15:55:06.642Z,3.87
2017-11-21T15:57:34.173Z,4.60
2017-11-21T16:00:01.777Z,4.40
2017-11-21T16:02:29.206Z,4.50
2017-11-21T16:04:56.709Z,4.60
2017-11-21T16:07:24.935Z,6.07
2017-11-21T16:09:53.220Z,5.68
2017-11-21T16:12:20.704Z,5.30
2017-11-21T16:14:48.136Z,5.00
2017-11-21T16:17:15.613Z,6.23
2017-11-21T16:19:43.073Z,5.85
2017-11-21T16:22:10.508Z,5.32
2017-11-21T16:24:42.681Z,5.77
2017-11-21T16:27:10.195Z,7.30
2017-11-21T16:29:37.660Z,5.77
2017-11-21T16:32:05.257Z,7.50
2017-11-21T16:34:33.556Z,7.43
2017-11-21T16:37:01.938Z,6.12
2017-11-21T16:39:30.174Z,5.90
2017-11-21T16:41:57.670Z,9.20
2017-11-21T16:44:27.040Z,7.43
2017-11-21T16:46:54.474Z,5.97
2017-11-21T16:49:22.041Z,6.37
2017-11-21T16:51:49.510Z,6.33
2017-11-21T16:54:20.337Z,6.20
2017-11-21T16:56:47.810Z,6.68
2017-11-21T16:59:15.790Z,6.82
2017-11-21T17:01:43.267Z,7.00
2017-11-21T17:04:10.722Z,7.07
2017-11-21T17:06:38.186Z,6.50
2017-11-21T17:09:10.321Z,5.18
2017-11-21T17:11:37.796Z,5.27
2017-11-21T17:14:06.661Z,6.15
2017-11-21T17:16:34.134Z,5.20
2017-11-21T17:19:01.686Z,6.35
2017-11-21T17:21:29.748Z,5.67
2017-11-21T17:23:57.217Z,6.07
2017-11-21T17:26:24.766Z,6.62
2017-11-21T17:28:52.422Z,6.80
2017-11-21T17:31:20.069Z,6.17
2017-11-21T17:33:47.541Z,6.90
2017-11-21T17:36:15.078Z,6.50
2017-11-21T17:38:42.534Z,7.95
2017-11-21T17:41:13.167Z,6.63
2017-11-21T17:43:40.618Z,7.43
2017-11-21T17:46:09.174Z,6.85
2017-11-21T17:48:36.657Z,8.03
2017-11-21T17:51:05.689Z,7.18
2017-11-21T17:53:34.068Z,8.60
2017-11-21T17:56:01.518Z,7.37
2017-11-21T17:58:28.953Z,8.67
2017-11-21T18:00:56.734Z,8.87
2017-11-21T18:03:24.173Z,8.13
2017-11-21T18:05:51.950Z,9.20
2017-11-21T18:08:19.406Z,10.43
2017-11-21T18:10:47.473Z,9.10
2017-11-21T18:13:14.939Z,8.10
2017-11-21T18:15:42.426Z,9.00
2017-11-21T18:18:12.301Z,8.83
2017-11-21T18:20:39.765Z,10.00
2017-11-21T18:23:08.389Z,10.57
2017-11-21T18:25:39.919Z,9.05
2017-11-21T18:28:07.371Z,10.17
2017-11-21T18:30:34.845Z,9.70
2017-11-21T18:33:02.323Z,10.60
2017-11-21T18:35:29.839Z,11.40
2017-11-21T18:37:57.277Z,11.30
2017-11-21T18:40:29.106Z,11.48
2017-11-21T18:42:56.558Z,10.27
2017-11-21T18:45:24.798Z,11.55
2017-11-21T18:47:52.477Z,12.27
2017-11-21T18:50:26.390Z,12.57
2017-11-21T18:52:53.918Z,12.93
2017-11-21T18:55:23.429Z,13.23
2017-11-21T18:57:51.558Z,13.10
2017-11-21T19:00:19.029Z,13.30
2017-11-21T19:02:46.506Z,12.70
2017-11-21T19:05:14.829Z,13.60
2017-11-21T19:07:42.286Z,13.47
2017-11-21T19:10:10.448Z,12.48
2017-11-21T19:12:42.480Z,12.65
2017-11-21T19:15:11.765Z,12.27
2017-11-21T19:17:39.234Z,14.10
2017-11-21T19:20:06.727Z,13.93
2017-11-21T19:22:34.166Z,13.77
2017-11-21T19:25:01.626Z,12.73
2017-11-21T19:27:29.239Z,14.00
2017-11-21T19:29:56.821Z,12.83
2017-11-21T19:32:24.778Z,13.60
2017-11-21T19:34:52.222Z,13.10
2017-11-21T19:37:19.693Z,11.37
2017-11-21T19:39:47.139Z,12.55
2017-11-21T19:42:14.851Z,13.43
2017-11-21T19:44:46.102Z,13.17
2017-11-21T19:47:14.214Z,11.43
2017-11-21T19:49:41.678Z,11.20
2017-11-21T19:52:09.165Z,12.25
2017-11-21T19:54:36.643Z,10.85
2017-11-21T19:57:11.727Z,13.40
2017-11-21T19:59:39.199Z,10.68
2017-11-21T20:02:06.986Z,14.93
2017-11-21T20:04:34.445Z,12.63
2017-11-21T20:07:01.897Z,12.20
2017-11-21T20:09:29.395Z,13.23
2017-11-21T20:11:56.938Z,10.93
2017-11-21T20:14:25.382Z,11.25
2017-11-21T20:16:52.914Z,12.90
2017-11-21T20:19:20.359Z,12.00
2017-11-21T20:21:47.798Z,14.20
2017-11-21T20:24:15.319Z,13.88
2017-11-21T20:26:42.754Z,14.53
2017-11-21T20:29:13.615Z,14.18
2017-11-21T20:31:41.090Z,16.20
2017-11-21T20:34:08.584Z,15.10
2017-11-21T20:36:36.976Z,14.95
2017-11-21T20:39:04.454Z,14.75
2017-11-21T20:41:31.911Z,14.00
2017-11-21T20:44:02.876Z,15.17
2017-11-21T20:46:30.547Z,16.10
2017-11-21T20:48:58.791Z,17.00
2017-11-21T20:51:26.246Z,16.00
2017-11-21T20:53:53.709Z,15.70
2017-11-21T20:56:21.283Z,16.37
2017-11-21T20:58:48.796Z,17.27
2017-11-21T21:01:16.254Z,15.63
2017-11-21T21:03:43.849Z,17.00
2017-11-21T21:06:11.297Z,17.33
2017-11-21T21:08:40.319Z,16.75
2017-11-21T21:11:07.844Z,16.47
2017-11-21T21:13:35.299Z,15.83
2017-11-21T21:16:08.218Z,16.43
2017-11-21T21:18:36.473Z,17.20
2017-11-21T21:21:04.550Z,16.20
2017-11-21T21:23:32.025Z,14.93
2017-11-21T21:25:59.495Z,16.70
2017-11-21T21:28:30.704Z,17.90
2017-11-21T21:30:58.189Z,18.57
2017-11-21T21:33:25.703Z,15.90
2017-11-21T21:35:54.170Z,13.30
2017-11-21T21:38:21.869Z,14.73
2017-11-21T21:40:49.351Z,13.90
2017-11-21T21:43:17.566Z,12.48
2017-11-21T21:45:48.348Z,13.32
2017-11-21T21:48:15.852Z,10.60
2017-11-21T21:50:43.974Z,11.57
2017-11-21T21:53:11.478Z,12.70
2017-11-21T21:55:38.930Z,11.50
2017-11-21T21:58:06.414Z,8.63
2017-11-21T22:00:35.604Z,12.73
2017-11-21T22:03:03.071Z,8.67
2017-11-21T22:05:30.529Z,10.10
2017-11-21T22:07:58.025Z,10.40
2017-11-21T22:10:25.463Z,9.40
2017-11-21T22:12:52.907Z,9.52
2017-11-21T22:15:20.381Z,11.77
2017-11-21T22:17:47.873Z,9.97
2017-11-21T22:20:16.263Z,9.20
2017-11-21T22:22:43.698Z,8.80
2017-11-21T22:25:11.158Z,8.93
2017-11-21T22:27:38.613Z,8.00
2017-11-21T22:30:09.755Z,8.37
2017-11-21T22:32:37.686Z,9.60
2017-11-21T22:35:06.785Z,9.58
2017-11-21T22:37:34.218Z,8.70
2017-11-21T22:40:02.838Z,9.27
2017-11-21T22:42:30.939Z,10.18
2017-11-21T22:44:58.370Z,11.33
2017-11-21T22:47:25.838Z,10.73
2017-11-21T22:49:53.387Z,10.10
2017-11-21T22:52:22.267Z,10.70
2017-11-21T22:54:49.866Z,9.55
2017-11-21T22:57:17.590Z,10.63
2017-11-21T22:59:45.867Z,10.30
2017-11-21T23:02:13.305Z,11.07
2017-11-21T23:04:40.786Z,9.38
2017-11-21T23:07:09.142Z,10.25
2017-11-21T23:09:36.609Z,10.13
2017-11-21T23:12:04.061Z,10.60
2017-11-21T23:14:31.557Z,10.00
2017-11-21T23:16:59.006Z,12.10
2017-11-21T23:19:26.545Z,12.13
2017-11-21T23:21:54.064Z,11.40
2017-11-21T23:24:21.673Z,12.15
2017-11-21T23:26:49.113Z,10.77
2017-11-21T23:29:18.105Z,12.07
2017-11-21T23:31:45.550Z,10.77
2017-11-21T23:34:13.029Z,12.20
2017-11-21T23:36:40.491Z,11.55
2017-11-21T23:39:07.943Z,11.23
2017-11-21T23:41:35.428Z,11.00
2017-11-21T23:44:02.878Z,11.60
2017-11-21T23:46:30.718Z,12.80
2017-11-21T23:48:58.170Z,12.13
2017-11-21T23:51:25.952Z,11.75
2017-11-21T23:53:53.577Z,12.03
2017-11-21T23:56:21.067Z,10.10
2017-11-21T23:58:48.724Z,11.68
